Time;durP1;ratioP1;P1;durP2;ratioP2;P2;SDS_P1;SDS_P2;PMS_P1;PMS_P2;Temp;Humidity;BMP_temperature;BMP_pressure;BME280_temperature;BME280_humidity;BME280_pressure;Samples;Min_cycle;Max_cycle;Signal;HPM_P1;HPM_P2
2023/10/06 00:03:05;;;;;;;;;;;13.50;99.90;;;;;;5076128;28;19919;-77
2023/10/06 00:05:32;;;;;;;;;;;13.50;99.90;;;;;;5074568;28;19915;-77
2023/10/06 00:07:58;;;;;;;;;;;13.50;99.90;;;;;;5076125;28;19908;-77
2023/10/06 00:10:27;;;;;;;;;;;13.50;99.90;;;;;;5076284;28;20998;-77
2023/10/06 00:12:59;;;;;;;;;;;13.40;99.90;;;;;;5076339;28;19914;-77
2023/10/06 00:15:40;;;;;;;;;;;13.40;99.90;;;;;;5076127;28;19955;-77
2023/10/06 00:18:16;;;;;;;;;;;13.40;99.90;;;;;;5075952;28;19908;-78
2023/10/06 00:20:48;;;;;;;;;;;13.40;99.90;;;;;;5075124;28;19991;-77
2023/10/06 00:23:14;;;;;;;;;;;13.40;99.90;;;;;;5074397;28;19913;-76
2023/10/06 00:25:43;;;;;;;;;;;13.30;99.90;;;;;;5076227;28;20388;-75
2023/10/06 00:28:16;;;;;;;;;;;13.30;99.90;;;;;;5075810;28;19909;-75
2023/10/06 00:30:42;;;;;;;;;;;13.30;99.90;;;;;;5075959;28;20395;-75
2023/10/06 00:33:07;;;;;;;;;;;13.30;99.90;;;;;;5074464;28;19909;-76
2023/10/06 00:35:35;;;;;;;;;;;13.30;99.90;;;;;;5073360;28;19917;-75
2023/10/06 00:38:16;;;;;;;;;;;13.20;99.90;;;;;;5074184;28;19919;-76
2023/10/06 00:40:51;;;;;;;;;;;13.20;99.90;;;;;;5074635;28;19909;-75
2023/10/06 00:43:36;;;;;;;;;;;13.20;99.90;;;;;;5076202;28;20281;-76
2023/10/06 00:46:08;;;;;;;;;;;13.10;99.90;;;;;;5074637;28;19909;-76
2023/10/06 00:48:53;;;;;;;;;;;13.10;99.90;;;;;;5075772;28;19995;-76
2023/10/06 00:51:19;;;;;;;;;;;13.10;99.90;;;;;;5075396;28;20283;-76
2023/10/06 00:53:45;;;;;;;;;;;13.10;99.90;;;;;;5075984;28;20027;-76
2023/10/06 00:56:14;;;;;;;;;;;13.00;99.90;;;;;;5075856;28;20407;-76
2023/10/06 00:58:43;;;;;;;;;;;13.10;99.90;;;;;;5075607;28;20391;-76
2023/10/06 01:01:12;;;;;;;;;;;13.00;99.90;;;;;;5075829;28;19912;-77
2023/10/06 01:03:38;;;;;;;;;;;13.00;99.90;;;;;;5074411;28;19913;-75
2023/10/06 01:06:08;;;;;;;;;;;13.00;99.90;;;;;;5075948;28;19912;-77
2023/10/06 01:08:34;;;;;;;;;;;12.90;99.90;;;;;;5073339;28;20311;-77
2023/10/06 01:11:11;;;;;;;;;;;12.90;99.90;;;;;;5074448;28;19909;-77
2023/10/06 01:13:37;;;;;;;;;;;12.80;99.90;;;;;;5075738;28;19912;-77
2023/10/06 01:16:11;;;;;;;;;;;12.80;99.90;;;;;;5077555;28;19908;-77
2023/10/06 01:18:40;;;;;;;;;;;12.70;99.90;;;;;;5079501;28;19920;-78
2023/10/06 01:21:17;;;;;;;;;;;12.70;99.90;;;;;;5079779;28;19913;-77
2023/10/06 01:23:44;;;;;;;;;;;12.70;99.90;;;;;;5077681;28;19913;-77
2023/10/06 01:26:09;;;;;;;;;;;12.70;99.90;;;;;;5079206;28;20003;-77
2023/10/06 01:28:35;;;;;;;;;;;12.70;99.90;;;;;;5079270;28;19994;-78
2023/10/06 01:31:02;;;;;;;;;;;12.60;99.90;;;;;;5071249;28;19920;-77
2023/10/06 01:33:27;;;;;;;;;;;12.60;99.90;;;;;;5079404;28;20423;-77
2023/10/06 01:35:55;;;;;;;;;;;12.60;99.90;;;;;;5079208;28;19962;-78
2023/10/06 01:38:23;;;;;;;;;;;12.60;99.90;;;;;;5077497;28;19908;-76
2023/10/06 01:41:02;;;;;;;;;;;12.60;99.90;;;;;;5078807;28;19908;-77
2023/10/06 01:43:29;;;;;;;;;;;12.50;99.90;;;;;;5102014;28;19920;-77
2023/10/06 01:45:55;;;;;;;;;;;12.50;99.90;;;;;;5073875;28;19908;-77
2023/10/06 01:50:48;;;;;;;;;;;12.40;99.90;;;;;;5078785;28;19927;-77
2023/10/06 01:53:20;;;;;;;;;;;12.40;99.90;;;;;;5078754;28;19913;-77
2023/10/06 01:55:52;;;;;;;;;;;12.40;99.90;;;;;;5077486;28;19909;-77
2023/10/06 01:58:17;;;;;;;;;;;12.40;99.90;;;;;;5078577;28;20021;-77
2023/10/06 02:00:47;;;;;;;;;;;12.40;99.90;;;;;;5078612;28;19916;-78
2023/10/06 02:03:16;;;;;;;;;;;12.40;99.90;;;;;;5078658;28;19920;-78
2023/10/06 02:05:42;;;;;;;;;;;12.40;99.90;;;;;;5078729;28;20364;-78
2023/10/06 02:08:14;;;;;;;;;;;12.40;99.90;;;;;;5077281;28;20303;-77
2023/10/06 02:10:42;;;;;;;;;;;12.30;99.90;;;;;;5078614;28;20384;-77
2023/10/06 02:13:08;;;;;;;;;;;12.30;99.90;;;;;;5078443;28;19916;-77
2023/10/06 02:15:34;;;;;;;;;;;12.20;99.90;;;;;;5077075;28;19962;-78
2023/10/06 02:17:59;;;;;;;;;;;12.30;99.90;;;;;;5077246;28;20292;-77
2023/10/06 02:22:51;;;;;;;;;;;12.20;99.90;;;;;;5078564;28;19930;-77
2023/10/06 02:25:20;;;;;;;;;;;12.20;99.90;;;;;;5075584;28;19913;-78
2023/10/06 02:27:47;;;;;;;;;;;12.10;99.90;;;;;;5077580;28;19908;-78
2023/10/06 02:30:35;;;;;;;;;;;12.10;99.90;;;;;;5078313;28;19970;-78
2023/10/06 02:33:01;;;;;;;;;;;12.00;99.90;;;;;;5078123;28;20011;-77
2023/10/06 02:35:26;;;;;;;;;;;12.00;99.90;;;;;;5078182;28;20003;-78
2023/10/06 02:37:52;;;;;;;;;;;12.00;99.90;;;;;;5077830;28;19959;-77
2023/10/06 02:40:18;;;;;;;;;;;11.90;99.90;;;;;;5076708;28;20277;-76
2023/10/06 02:42:46;;;;;;;;;;;11.90;99.90;;;;;;5077951;28;19916;-77
2023/10/06 02:45:20;;;;;;;;;;;11.90;99.90;;;;;;5077453;28;19912;-77
2023/10/06 02:47:49;;;;;;;;;;;12.00;99.90;;;;;;5077635;28;19908;-76
2023/10/06 02:50:21;;;;;;;;;;;12.00;99.90;;;;;;5077709;28;19912;-77
2023/10/06 02:52:47;;;;;;;;;;;12.00;99.90;;;;;;5077710;28;19998;-77
2023/10/06 02:55:19;;;;;;;;;;;12.00;99.90;;;;;;5076370;28;19919;-77
2023/10/06 02:57:50;;;;;;;;;;;12.00;99.90;;;;;;5077737;28;20007;-77
2023/10/06 03:03:03;;;;;;;;;;;11.90;99.90;;;;;;5077765;28;19908;-77
2023/10/06 03:05:39;;;;;;;;;;;11.80;99.90;;;;;;5076663;28;19919;-77
2023/10/06 03:08:11;;;;;;;;;;;11.80;99.90;;;;;;5076484;28;19925;-77
2023/10/06 03:10:43;;;;;;;;;;;11.70;99.90;;;;;;5077125;28;19908;-77
2023/10/06 03:13:15;;;;;;;;;;;11.70;99.90;;;;;;5076681;28;19946;-76
2023/10/06 03:15:47;;;;;;;;;;;11.70;99.90;;;;;;5077094;28;20005;-77
2023/10/06 03:18:16;;;;;;;;;;;11.70;99.90;;;;;;5077260;28;19909;-77
2023/10/06 03:20:48;;;;;;;;;;;11.70;99.90;;;;;;5077434;28;20375;-77
2023/10/06 03:23:27;;;;;;;;;;;11.70;99.90;;;;;;5073782;28;19931;-77
2023/10/06 03:25:53;;;;;;;;;;;11.60;99.90;;;;;;5077044;28;19915;-77
2023/10/06 03:28:20;;;;;;;;;;;11.60;99.90;;;;;;5077076;28;19959;-77
2023/10/06 03:30:49;;;;;;;;;;;11.50;99.90;;;;;;5076802;28;19925;-77
2023/10/06 03:33:17;;;;;;;;;;;11.50;99.90;;;;;;5076807;28;20352;-77
2023/10/06 03:35:45;;;;;;;;;;;11.50;99.90;;;;;;5076951;28;19909;-77
2023/10/06 03:40:46;;;;;;;;;;;11.40;99.90;;;;;;5076828;28;20007;-77
2023/10/06 03:43:15;;;;;;;;;;;11.40;99.90;;;;;;5075653;28;19908;-77
2023/10/06 03:45:42;;;;;;;;;;;11.40;99.90;;;;;;5076455;28;19935;-77
2023/10/06 03:50:40;;;;;;;;;;;11.30;99.90;;;;;;5076563;28;19919;-77
2023/10/06 03:53:11;;;;;;;;;;;11.30;99.90;;;;;;5076361;28;20415;-77
2023/10/06 03:55:39;;;;;;;;;;;11.30;99.90;;;;;;5076239;28;19965;-77
2023/10/06 03:58:10;;;;;;;;;;;11.30;99.90;;;;;;5076280;28;19915;-77
2023/10/06 04:00:39;;;;;;;;;;;11.20;99.90;;;;;;5076103;28;19915;-77
2023/10/06 04:03:13;;;;;;;;;;;11.20;99.90;;;;;;5074891;28;19909;-77
2023/10/06 04:05:40;;;;;;;;;;;11.20;99.90;;;;;;5076308;28;19948;-77
2023/10/06 04:08:12;;;;;;;;;;;11.10;99.90;;;;;;5075839;28;19916;-78
2023/10/06 04:10:40;;;;;;;;;;;11.10;99.90;;;;;;5075059;28;19915;-78
2023/10/06 04:13:08;;;;;;;;;;;11.00;99.90;;;;;;5076446;28;19916;-77
2023/10/06 04:15:43;;;;;;;;;;;11.00;99.90;;;;;;5075778;28;19908;-77
2023/10/06 04:18:12;;;;;;;;;;;11.00;99.90;;;;;;5076121;28;19909;-77
2023/10/06 04:20:39;;;;;;;;;;;11.00;99.90;;;;;;5075924;28;20384;-76
2023/10/06 04:23:05;;;;;;;;;;;11.00;99.90;;;;;;5075892;28;19912;-77
2023/10/06 04:25:31;;;;;;;;;;;11.00;99.90;;;;;;5076056;28;19908;-77
2023/10/06 04:27:57;;;;;;;;;;;11.00;99.90;;;;;;5076375;28;19938;-78
2023/10/06 04:30:25;;;;;;;;;;;11.00;99.90;;;;;;5075853;28;19926;-78
2023/10/06 04:32:51;;;;;;;;;;;11.00;99.90;;;;;;5076072;28;19954;-78
2023/10/06 04:35:21;;;;;;;;;;;11.00;99.90;;;;;;5076025;28;19916;-77
2023/10/06 04:37:47;;;;;;;;;;;10.90;99.90;;;;;;5074408;28;19920;-78
2023/10/06 04:40:21;;;;;;;;;;;10.90;99.90;;;;;;5076293;28;19999;-77
2023/10/06 04:42:47;;;;;;;;;;;10.90;99.90;;;;;;5075902;28;19948;-77
2023/10/06 04:45:15;;;;;;;;;;;10.90;99.90;;;;;;5075894;28;19920;-76
2023/10/06 04:47:41;;;;;;;;;;;10.90;99.90;;;;;;5076505;28;19954;-77
2023/10/06 04:50:10;;;;;;;;;;;10.90;99.90;;;;;;5076492;28;19938;-77
2023/10/06 04:52:36;;;;;;;;;;;10.90;99.90;;;;;;5082229;28;19940;-77
2023/10/06 04:55:04;;;;;;;;;;;10.80;99.90;;;;;;5082441;28;20565;-77
2023/10/06 04:57:29;;;;;;;;;;;10.80;99.90;;;;;;5082339;28;19931;-77
2023/10/06 04:59:55;;;;;;;;;;;10.80;99.90;;;;;;5082405;28;20309;-77
2023/10/06 05:02:22;;;;;;;;;;;10.80;99.90;;;;;;5081086;28;19934;-78
2023/10/06 05:04:47;;;;;;;;;;;10.80;99.90;;;;;;5080884;28;19912;-77
2023/10/06 05:07:13;;;;;;;;;;;10.70;99.90;;;;;;5082523;28;20403;-77
2023/10/06 05:09:40;;;;;;;;;;;10.70;99.90;;;;;;5083424;28;19908;-77
2023/10/06 05:12:05;;;;;;;;;;;10.70;99.90;;;;;;5082246;28;20338;-76
2023/10/06 05:14:34;;;;;;;;;;;10.60;99.90;;;;;;5082120;28;19912;-77
2023/10/06 05:16:59;;;;;;;;;;;10.60;99.90;;;;;;5082105;28;19916;-77
2023/10/06 05:19:26;;;;;;;;;;;10.60;99.90;;;;;;5080783;28;19908;-77
2023/10/06 05:21:53;;;;;;;;;;;10.60;99.90;;;;;;5089218;28;20364;-77
2023/10/06 05:24:18;;;;;;;;;;;10.60;99.90;;;;;;5083455;28;19912;-77
2023/10/06 05:26:44;;;;;;;;;;;10.60;99.90;;;;;;5083329;28;20379;-77
2023/10/06 05:29:13;;;;;;;;;;;10.60;99.90;;;;;;5082025;28;19909;-77
2023/10/06 05:31:40;;;;;;;;;;;10.50;99.90;;;;;;5080671;28;20543;-77
2023/10/06 05:34:07;;;;;;;;;;;10.50;99.90;;;;;;5079624;28;19915;-77
2023/10/06 05:36:33;;;;;;;;;;;10.50;99.90;;;;;;5081842;28;19912;-77
2023/10/06 05:39:01;;;;;;;;;;;10.50;99.90;;;;;;5081438;28;20701;-77
2023/10/06 05:41:33;;;;;;;;;;;10.50;99.90;;;;;;5082047;28;19935;-77
2023/10/06 05:43:59;;;;;;;;;;;10.60;99.90;;;;;;5080641;28;19916;-77
2023/10/06 05:46:24;;;;;;;;;;;10.50;99.90;;;;;;5081788;28;19919;-77
2023/10/06 05:48:51;;;;;;;;;;;10.60;99.90;;;;;;5080542;28;20068;-77
2023/10/06 05:51:21;;;;;;;;;;;10.50;99.90;;;;;;5082240;28;19991;-77
2023/10/06 05:53:48;;;;;;;;;;;10.50;99.90;;;;;;5082064;28;20273;-77
2023/10/06 05:56:18;;;;;;;;;;;10.50;99.90;;;;;;5081720;28;19913;-77
2023/10/06 05:58:43;;;;;;;;;;;10.50;99.90;;;;;;5081188;28;19909;-77
2023/10/06 06:01:18;;;;;;;;;;;10.40;99.90;;;;;;5096171;28;19912;-77
2023/10/06 06:03:47;;;;;;;;;;;10.40;99.90;;;;;;5073565;28;20116;-77
2023/10/06 06:06:15;;;;;;;;;;;10.40;99.90;;;;;;5078479;28;19919;-77
2023/10/06 06:08:43;;;;;;;;;;;10.40;99.90;;;;;;5078711;28;19952;-77
2023/10/06 06:11:09;;;;;;;;;;;10.40;99.90;;;;;;5077324;28;19954;-77
2023/10/06 06:13:36;;;;;;;;;;;10.40;99.90;;;;;;5078108;28;19917;-77
2023/10/06 06:16:02;;;;;;;;;;;10.40;99.90;;;;;;5078548;28;19966;-76
2023/10/06 06:18:28;;;;;;;;;;;10.50;99.90;;;;;;5077461;28;19920;-78
2023/10/06 06:20:53;;;;;;;;;;;10.50;99.90;;;;;;5078321;28;20109;-77
2023/10/06 06:23:20;;;;;;;;;;;10.50;99.90;;;;;;5077926;28;20322;-77
2023/10/06 06:25:45;;;;;;;;;;;10.60;99.90;;;;;;5079836;28;19985;-76
2023/10/06 06:28:12;;;;;;;;;;;10.60;99.90;;;;;;5081136;28;19916;-76
2023/10/06 06:30:39;;;;;;;;;;;10.50;99.90;;;;;;5067691;28;20393;-76
2023/10/06 06:33:08;;;;;;;;;;;10.50;99.90;;;;;;5077925;28;19916;-76
2023/10/06 06:35:35;;;;;;;;;;;10.60;99.90;;;;;;5077701;28;19908;-76
2023/10/06 06:38:01;;;;;;;;;;;10.60;99.90;;;;;;5077687;28;19947;-76
2023/10/06 06:40:28;;;;;;;;;;;10.60;99.90;;;;;;5077570;28;19958;-76
2023/10/06 06:42:55;;;;;;;;;;;10.70;99.90;;;;;;5077661;28;19916;-76
2023/10/06 06:45:23;;;;;;;;;;;10.70;99.90;;;;;;5077626;28;19912;-76
2023/10/06 06:47:48;;;;;;;;;;;10.80;99.90;;;;;;5077794;28;19912;-76
2023/10/06 06:50:15;;;;;;;;;;;10.80;99.90;;;;;;5076000;28;19934;-76
2023/10/06 06:52:41;;;;;;;;;;;10.90;99.90;;;;;;5077611;28;19909;-77
2023/10/06 06:55:12;;;;;;;;;;;10.90;99.90;;;;;;5077652;28;19920;-76
2023/10/06 06:57:44;;;;;;;;;;;11.00;99.90;;;;;;5076583;28;20482;-77
2023/10/06 07:00:21;;;;;;;;;;;11.10;99.90;;;;;;5070737;28;19916;-76
2023/10/06 07:02:53;;;;;;;;;;;11.20;99.90;;;;;;5074804;28;19912;-76
2023/10/06 07:05:22;;;;;;;;;;;11.30;99.90;;;;;;5076035;28;20303;-76
2023/10/06 07:07:50;;;;;;;;;;;11.40;99.90;;;;;;5075812;28;19915;-76
2023/10/06 07:10:19;;;;;;;;;;;11.50;99.90;;;;;;5075882;28;19916;-75
2023/10/06 07:12:46;;;;;;;;;;;11.60;99.90;;;;;;5075480;28;19909;-76
2023/10/06 07:15:17;;;;;;;;;;;11.80;99.90;;;;;;5076029;28;19970;-77
2023/10/06 07:17:48;;;;;;;;;;;11.90;99.90;;;;;;5074308;28;19908;-76
2023/10/06 07:20:32;;;;;;;;;;;12.10;99.90;;;;;;5074301;28;19908;-76
2023/10/06 07:23:02;;;;;;;;;;;12.20;99.90;;;;;;5073897;28;19912;-76
2023/10/06 07:25:28;;;;;;;;;;;12.40;99.90;;;;;;5073130;28;19951;-76
2023/10/06 07:27:55;;;;;;;;;;;12.60;99.90;;;;;;5074247;28;20365;-76
2023/10/06 07:30:22;;;;;;;;;;;12.70;99.90;;;;;;5074968;28;19915;-75
2023/10/06 07:32:49;;;;;;;;;;;12.80;99.90;;;;;;5074844;28;19956;-75
2023/10/06 07:35:17;;;;;;;;;;;13.00;99.90;;;;;;5075895;28;19913;-75
2023/10/06 07:37:47;;;;;;;;;;;13.10;99.90;;;;;;5076025;28;19948;-74
2023/10/06 07:40:14;;;;;;;;;;;13.30;99.90;;;;;;5070066;28;20292;-75
2023/10/06 07:42:41;;;;;;;;;;;13.40;99.90;;;;;;5076056;28;19915;-75
2023/10/06 07:45:07;;;;;;;;;;;13.60;99.90;;;;;;5075419;28;19993;-75
2023/10/06 07:47:34;;;;;;;;;;;13.70;99.90;;;;;;5077704;28;19927;-77
2023/10/06 07:49:59;;;;;;;;;;;13.90;99.90;;;;;;5073395;28;20334;-77
2023/10/06 07:52:25;;;;;;;;;;;14.00;99.90;;;;;;5075755;28;19912;-77
2023/10/06 07:54:51;;;;;;;;;;;14.10;99.90;;;;;;5075092;28;20398;-76
2023/10/06 07:57:18;;;;;;;;;;;14.30;99.90;;;;;;5075408;28;19914;-77
2023/10/06 07:59:43;;;;;;;;;;;14.40;99.90;;;;;;5072946;28;19914;-75
2023/10/06 08:02:10;;;;;;;;;;;14.60;99.90;;;;;;5074659;28;20497;-77
2023/10/06 08:04:35;;;;;;;;;;;14.70;99.90;;;;;;5074446;28;19916;-77
2023/10/06 08:07:01;;;;;;;;;;;14.80;99.90;;;;;;5074978;28;19961;-77
2023/10/06 08:09:27;;;;;;;;;;;15.00;99.90;;;;;;5075240;28;19931;-77
2023/10/06 08:11:55;;;;;;;;;;;15.10;99.90;;;;;;5071676;28;19909;-75
2023/10/06 08:14:24;;;;;;;;;;;15.30;99.90;;;;;;5075704;28;19908;-76
2023/10/06 08:16:50;;;;;;;;;;;15.30;99.90;;;;;;5075263;28;19932;-77
2023/10/06 08:19:16;;;;;;;;;;;15.40;99.90;;;;;;5074064;28;19909;-76
2023/10/06 08:21:41;;;;;;;;;;;15.40;99.90;;;;;;5073627;28;19908;-76
2023/10/06 08:24:07;;;;;;;;;;;15.50;99.90;;;;;;5073519;28;19919;-77
2023/10/06 08:26:36;;;;;;;;;;;15.60;99.90;;;;;;5074253;28;20387;-77
2023/10/06 08:29:04;;;;;;;;;;;16.00;99.90;;;;;;5074943;28;19915;-78
2023/10/06 08:31:30;;;;;;;;;;;16.00;99.90;;;;;;5073651;28;19924;-77
2023/10/06 08:33:57;;;;;;;;;;;16.30;99.90;;;;;;5074022;28;19995;-75
2023/10/06 08:36:23;;;;;;;;;;;16.50;99.90;;;;;;5073561;28;19920;-76
2023/10/06 08:38:51;;;;;;;;;;;16.50;99.90;;;;;;5074850;28;19909;-77
2023/10/06 08:41:23;;;;;;;;;;;16.60;99.90;;;;;;5073716;28;19908;-78
2023/10/06 08:43:51;;;;;;;;;;;16.70;99.90;;;;;;5075173;28;19920;-76
2023/10/06 08:46:17;;;;;;;;;;;16.90;99.90;;;;;;5073054;28;19912;-76
2023/10/06 08:48:45;;;;;;;;;;;17.20;99.90;;;;;;5075334;28;19965;-76
2023/10/06 08:51:14;;;;;;;;;;;17.40;99.90;;;;;;5073455;28;19912;-77
2023/10/06 08:53:40;;;;;;;;;;;17.40;99.90;;;;;;5074826;28;19909;-76
2023/10/06 08:56:05;;;;;;;;;;;17.50;99.90;;;;;;5073502;28;20057;-76
2023/10/06 08:58:31;;;;;;;;;;;17.60;99.90;;;;;;5074947;28;19931;-77
2023/10/06 09:00:57;;;;;;;;;;;17.80;99.90;;;;;;5073311;28;20359;-77
2023/10/06 09:03:23;;;;;;;;;;;17.90;99.90;;;;;;5074960;28;19909;-76
2023/10/06 09:05:50;;;;;;;;;;;18.10;99.90;;;;;;5074807;28;19915;-77
2023/10/06 09:08:17;;;;;;;;;;;18.20;99.90;;;;;;5075327;28;19919;-77
2023/10/06 09:10:50;;;;;;;;;;;18.40;99.90;;;;;;5069826;28;20408;-77
2023/10/06 09:13:17;;;;;;;;;;;18.50;99.90;;;;;;5070711;28;19970;-76
2023/10/06 09:15:43;;;;;;;;;;;18.60;99.90;;;;;;5073128;28;19995;-76
2023/10/06 09:18:23;;;;;;;;;;;18.60;99.90;;;;;;5074209;28;19916;-75
2023/10/06 09:20:49;;;;;;;;;;;18.90;99.90;;;;;;5068836;28;20382;-76
2023/10/06 09:23:31;;;;;;;;;;;19.10;99.90;;;;;;5074531;28;19951;-76
2023/10/06 09:25:57;;;;;;;;;;;19.30;99.90;;;;;;5070800;28;19923;-76
2023/10/06 09:28:23;;;;;;;;;;;19.50;99.90;;;;;;5073054;28;20003;-77
2023/10/06 09:30:50;;;;;;;;;;;19.50;99.90;;;;;;5073318;28;19966;-76
2023/10/06 09:33:16;;;;;;;;;;;19.50;99.90;;;;;;5074486;28;19909;-76
2023/10/06 09:35:43;;;;;;;;;;;19.60;99.90;;;;;;5072920;28;20445;-77
2023/10/06 09:38:13;;;;;;;;;;;19.60;99.90;;;;;;5077771;28;19912;-76
2023/10/06 09:40:43;;;;;;;;;;;19.60;99.90;;;;;;5076983;28;19948;-75
2023/10/06 09:43:11;;;;;;;;;;;19.70;99.90;;;;;;5077917;28;19962;-77
2023/10/06 09:45:37;;;;;;;;;;;19.80;99.90;;;;;;5076116;28;19916;-76
2023/10/06 09:48:08;;;;;;;;;;;19.80;99.90;;;;;;5076766;28;19913;-76
2023/10/06 09:50:37;;;;;;;;;;;19.80;99.90;;;;;;5076796;28;19995;-76
2023/10/06 09:53:05;;;;;;;;;;;19.90;99.90;;;;;;5077772;28;20391;-77
2023/10/06 09:55:31;;;;;;;;;;;19.90;99.90;;;;;;5077522;28;19916;-76
2023/10/06 09:57:57;;;;;;;;;;;20.00;99.90;;;;;;5078825;28;19913;-77
2023/10/06 10:00:24;;;;;;;;;;;20.10;99.90;;;;;;5077390;28;19912;-76
2023/10/06 10:02:50;;;;;;;;;;;20.20;99.90;;;;;;5076208;28;19912;-76
2023/10/06 10:05:19;;;;;;;;;;;20.30;99.90;;;;;;5077713;28;19958;-77
2023/10/06 10:07:48;;;;;;;;;;;20.50;99.90;;;;;;5076247;28;19919;-76
2023/10/06 10:10:15;;;;;;;;;;;20.60;99.90;;;;;;5075091;28;19908;-77
2023/10/06 10:12:58;;;;;;;;;;;20.70;99.90;;;;;;5077475;28;19917;-76
2023/10/06 10:15:42;;;;;;;;;;;20.80;99.90;;;;;;5077141;28;19960;-76
2023/10/06 10:18:17;;;;;;;;;;;20.90;99.90;;;;;;5077539;28;20466;-75
2023/10/06 10:20:46;;;;;;;;;;;21.00;99.90;;;;;;5076042;28;19967;-76
2023/10/06 10:23:15;;;;;;;;;;;21.10;99.90;;;;;;5077343;28;19915;-76
2023/10/06 10:25:41;;;;;;;;;;;21.30;99.90;;;;;;5076044;28;19913;-76
2023/10/06 10:28:13;;;;;;;;;;;21.40;99.90;;;;;;5075537;28;20288;-75
2023/10/06 10:30:59;;;;;;;;;;;21.50;99.90;;;;;;5076228;28;19943;-75
2023/10/06 10:33:31;;;;;;;;;;;21.60;99.90;;;;;;5076018;28;19912;-76
2023/10/06 10:36:12;;;;;;;;;;;21.80;99.90;;;;;;5073214;28;19952;-75
2023/10/06 10:38:38;;;;;;;;;;;21.80;99.90;;;;;;5076932;28;19908;-75
2023/10/06 10:41:08;;;;;;;;;;;21.90;99.70;;;;;;5075863;28;19913;-76
2023/10/06 10:43:37;;;;;;;;;;;22.00;94.60;;;;;;5075488;28;19999;-75
2023/10/06 10:46:06;;;;;;;;;;;22.10;93.80;;;;;;5076399;28;19909;-75
2023/10/06 10:48:32;;;;;;;;;;;22.10;97.30;;;;;;5075109;28;19961;-75
2023/10/06 10:51:10;;;;;;;;;;;22.10;97.50;;;;;;5075640;28;19908;-76
2023/10/06 10:53:41;;;;;;;;;;;22.20;99.90;;;;;;5076885;28;19999;-76
2023/10/06 10:56:13;;;;;;;;;;;22.30;99.90;;;;;;5075922;28;20288;-76
2023/10/06 10:58:42;;;;;;;;;;;22.30;98.50;;;;;;5075045;28;19912;-75
2023/10/06 11:01:27;;;;;;;;;;;22.50;98.30;;;;;;5072586;28;19909;-77
2023/10/06 11:04:18;;;;;;;;;;;22.60;97.30;;;;;;5073802;28;19919;-76
2023/10/06 11:06:48;;;;;;;;;;;22.70;96.30;;;;;;5074866;28;19914;-75
2023/10/06 11:09:26;;;;;;;;;;;22.70;97.70;;;;;;5076356;28;20003;-77
2023/10/06 11:11:55;;;;;;;;;;;22.80;96.30;;;;;;5076376;28;19924;-76
2023/10/06 11:14:28;;;;;;;;;;;22.90;96.40;;;;;;5076115;28;20477;-76
2023/10/06 11:17:01;;;;;;;;;;;23.00;97.90;;;;;;5074152;28;20386;-76
2023/10/06 11:19:28;;;;;;;;;;;23.10;95.10;;;;;;5074403;28;20376;-76
2023/10/06 11:21:53;;;;;;;;;;;23.20;95.90;;;;;;5075964;28;19944;-76
2023/10/06 11:24:25;;;;;;;;;;;23.30;94.50;;;;;;5075922;28;19968;-76
2023/10/06 11:26:51;;;;;;;;;;;23.50;94.70;;;;;;5075801;28;19954;-75
2023/10/06 11:29:32;;;;;;;;;;;23.60;93.80;;;;;;5075117;28;19938;-76
2023/10/06 11:31:59;;;;;;;;;;;23.80;94.50;;;;;;5073682;28;20399;-76
2023/10/06 11:34:24;;;;;;;;;;;24.00;93.00;;;;;;5075836;28;19916;-74
2023/10/06 11:36:59;;;;;;;;;;;24.00;92.60;;;;;;5075708;28;19947;-76
2023/10/06 11:39:29;;;;;;;;;;;24.10;92.80;;;;;;5075065;28;19959;-75
2023/10/06 11:42:13;;;;;;;;;;;24.20;93.70;;;;;;5073954;28;19912;-75
2023/10/06 11:44:39;;;;;;;;;;;24.30;92.50;;;;;;5075654;28;20300;-75
2023/10/06 11:47:05;;;;;;;;;;;24.40;94.70;;;;;;5075384;28;19990;-74
2023/10/06 11:49:30;;;;;;;;;;;24.50;92.80;;;;;;5074425;28;19919;-74
2023/10/06 11:51:57;;;;;;;;;;;24.50;95.10;;;;;;5074396;28;19948;-75
2023/10/06 11:54:22;;;;;;;;;;;24.50;93.60;;;;;;5075659;28;20329;-76
2023/10/06 11:56:49;;;;;;;;;;;24.50;93.90;;;;;;5075124;28;19913;-76
2023/10/06 11:59:18;;;;;;;;;;;24.60;93.00;;;;;;5073527;28;19916;-75
2023/10/06 12:01:45;;;;;;;;;;;24.60;93.50;;;;;;5074221;28;19920;-75
2023/10/06 12:04:29;;;;;;;;;;;24.80;92.60;;;;;;5074880;28;20399;-75
2023/10/06 12:06:55;;;;;;;;;;;24.90;93.40;;;;;;5072095;28;20235;-76
2023/10/06 12:09:30;;;;;;;;;;;25.00;94.50;;;;;;5074155;28;19920;-75
2023/10/06 12:11:59;;;;;;;;;;;24.90;93.00;;;;;;5074274;28;20223;-76
2023/10/06 12:14:28;;;;;;;;;;;25.00;93.50;;;;;;5075143;28;19908;-79
2023/10/06 12:16:57;;;;;;;;;;;25.20;92.90;;;;;;5074988;28;20299;-76
2023/10/06 12:19:23;;;;;;;;;;;25.30;93.10;;;;;;5074871;28;19923;-77
2023/10/06 12:21:50;;;;;;;;;;;25.30;92.60;;;;;;5072588;28;19908;-76
2023/10/06 12:24:15;;;;;;;;;;;25.40;91.90;;;;;;5074813;28;19920;-76
2023/10/06 12:26:41;;;;;;;;;;;25.50;91.70;;;;;;5075206;28;19919;-76
2023/10/06 12:29:06;;;;;;;;;;;25.60;91.80;;;;;;5075098;28;19912;-78
2023/10/06 12:31:32;;;;;;;;;;;25.60;91.90;;;;;;5073938;28;19966;-78
2023/10/06 12:34:03;;;;;;;;;;;25.60;92.70;;;;;;5072098;28;20280;-77
2023/10/06 12:36:28;;;;;;;;;;;25.50;92.40;;;;;;5074921;28;19993;-79
2023/10/06 12:38:54;;;;;;;;;;;25.60;92.10;;;;;;5074398;28;19916;-76
2023/10/06 12:41:20;;;;;;;;;;;25.60;91.90;;;;;;5072615;28;19909;-77
2023/10/06 12:43:47;;;;;;;;;;;25.70;92.90;;;;;;5074615;28;19912;-76
2023/10/06 12:46:13;;;;;;;;;;;25.80;92.80;;;;;;5075144;28;20299;-76
2023/10/06 12:48:38;;;;;;;;;;;25.90;91.50;;;;;;5073165;28;19908;-77
2023/10/06 12:51:11;;;;;;;;;;;25.90;91.10;;;;;;5073629;28;19952;-77
2023/10/06 12:53:37;;;;;;;;;;;26.00;91.00;;;;;;5074933;28;20424;-77
2023/10/06 12:56:04;;;;;;;;;;;26.10;91.20;;;;;;5073172;28;19912;-77
2023/10/06 12:58:30;;;;;;;;;;;26.20;91.30;;;;;;5072996;28;19930;-77
2023/10/06 13:00:55;;;;;;;;;;;26.20;90.70;;;;;;5069775;28;19909;-77
2023/10/06 13:03:21;;;;;;;;;;;26.30;90.40;;;;;;5067559;28;19915;-78
2023/10/06 13:05:47;;;;;;;;;;;26.20;90.40;;;;;;5073644;28;19921;-78
2023/10/06 13:08:17;;;;;;;;;;;26.20;91.20;;;;;;5071110;28;19920;-77
2023/10/06 13:10:43;;;;;;;;;;;26.20;91.60;;;;;;5071952;28;19919;-77
2023/10/06 13:13:09;;;;;;;;;;;26.40;91.60;;;;;;5076262;28;19912;-77
2023/10/06 13:15:34;;;;;;;;;;;26.40;91.60;;;;;;5076334;28;19916;-77
2023/10/06 13:18:00;;;;;;;;;;;26.50;90.60;;;;;;5077749;28;20398;-77
2023/10/06 13:20:25;;;;;;;;;;;26.50;91.20;;;;;;5073468;28;20474;-76
2023/10/06 13:22:51;;;;;;;;;;;26.60;90.70;;;;;;5076755;28;19915;-77
2023/10/06 13:25:20;;;;;;;;;;;26.60;91.10;;;;;;5077911;28;19912;-77
2023/10/06 13:27:47;;;;;;;;;;;26.70;91.20;;;;;;5077479;28;19916;-75
2023/10/06 13:30:13;;;;;;;;;;;26.70;90.80;;;;;;5075088;28;19912;-77
2023/10/06 13:32:39;;;;;;;;;;;26.80;90.70;;;;;;5077541;28;19927;-78
2023/10/06 13:35:11;;;;;;;;;;;26.80;90.30;;;;;;5078144;28;20291;-77
2023/10/06 13:37:40;;;;;;;;;;;26.80;90.30;;;;;;5077198;28;19909;-77
2023/10/06 13:40:10;;;;;;;;;;;26.80;91.80;;;;;;5076791;28;19909;-77
2023/10/06 13:42:42;;;;;;;;;;;26.80;91.90;;;;;;5076397;28;19920;-77
2023/10/06 13:45:30;;;;;;;;;;;26.80;91.90;;;;;;5073769;28;19924;-73
2023/10/06 13:47:56;;;;;;;;;;;26.80;90.80;;;;;;5077759;28;19913;-77
2023/10/06 13:50:22;;;;;;;;;;;26.90;91.30;;;;;;5076918;28;19918;-76
2023/10/06 13:52:51;;;;;;;;;;;26.90;91.30;;;;;;5076218;28;20353;-78
2023/10/06 13:55:17;;;;;;;;;;;26.90;91.70;;;;;;5077816;28;20368;-77
2023/10/06 13:57:44;;;;;;;;;;;26.90;91.60;;;;;;5076045;28;19948;-77
2023/10/06 14:00:28;;;;;;;;;;;27.00;92.50;;;;;;5075670;28;19912;-77
2023/10/06 14:02:54;;;;;;;;;;;27.00;88.90;;;;;;5077525;28;19978;-78
2023/10/06 14:05:21;;;;;;;;;;;27.10;87.50;;;;;;5074786;28;19916;-76
2023/10/06 14:07:47;;;;;;;;;;;27.20;87.00;;;;;;5077050;28;19915;-77
2023/10/06 14:10:15;;;;;;;;;;;27.30;85.50;;;;;;5075994;28;19909;-77
2023/10/06 14:12:48;;;;;;;;;;;27.30;84.10;;;;;;5076114;28;20388;-78
2023/10/06 14:15:22;;;;;;;;;;;27.20;85.50;;;;;;5077289;28;19966;-79
2023/10/06 14:17:48;;;;;;;;;;;27.30;87.60;;;;;;5101355;28;20372;-79
2023/10/06 14:20:23;;;;;;;;;;;27.20;86.70;;;;;;5076238;28;19908;-78
2023/10/06 14:22:55;;;;;;;;;;;27.20;86.00;;;;;;5075453;28;19912;-77
2023/10/06 14:25:22;;;;;;;;;;;27.20;86.40;;;;;;5075592;28;19965;-79
2023/10/06 14:27:52;;;;;;;;;;;27.20;85.30;;;;;;5075816;28;19908;-78
2023/10/06 14:30:21;;;;;;;;;;;27.30;82.70;;;;;;5076118;28;19950;-79
2023/10/06 14:35:53;;;;;;;;;;;27.40;81.10;;;;;;5076028;28;19920;-78
2023/10/06 14:46:28;;;;;;;;;;;27.30;81.10;;;;;;5076118;28;19966;-79
2023/10/06 14:48:54;;;;;;;;;;;27.30;82.40;;;;;;5075254;28;19912;-78
2023/10/06 14:51:20;;;;;;;;;;;27.20;83.40;;;;;;5075334;28;20003;-79